Time;durP1;ratioP1;P1;durP2;ratioP2;P2;SDS_P1;SDS_P2;PMS_P1;PMS_P2;Temp;Humidity;BMP_temperature;BMP_pressure;BME280_temperature;BME280_humidity;BME280_pressure;Samples;Min_cycle;Max_cycle;Signal;HPM_P1;HPM_P2
2021/03/09 00:00:19;;;;;;;19.80;16.17;;;;;;;;;;5004222;28;20279;-81
2021/03/09 00:03:04;;;;;;;19.13;14.93;;;;;;;;;;5012152;28;20878;-80
2021/03/09 00:05:48;;;;;;;21.27;15.17;;;;;;;;;;5010812;28;20204;-80
2021/03/09 00:08:33;;;;;;;20.43;15.60;;;;;;;;;;5011721;28;20720;-80
2021/03/09 00:11:18;;;;;;;20.67;15.33;;;;;;;;;;5011985;28;20202;-80
2021/03/09 00:14:02;;;;;;;23.07;15.63;;;;;;;;;;5011520;28;20720;-80
2021/03/09 00:16:46;;;;;;;19.37;14.97;;;;;;;;;;5011411;28;20284;-80
2021/03/09 00:19:31;;;;;;;19.97;16.37;;;;;;;;;;5011060;28;20276;-80
2021/03/09 00:22:16;;;;;;;19.33;15.27;;;;;;;;;;5011586;28;20588;-80
2021/03/09 00:25:01;;;;;;;21.17;16.50;;;;;;;;;;5011724;28;20614;-80
2021/03/09 00:27:45;;;;;;;20.70;16.30;;;;;;;;;;5010869;28;20212;-81
2021/03/09 00:30:30;;;;;;;19.10;16.47;;;;;;;;;;5011253;28;20264;-80
2021/03/09 00:33:15;;;;;;;22.30;17.33;;;;;;;;;;5011451;28;20236;-79
2021/03/09 00:35:59;;;;;;;23.10;17.50;;;;;;;;;;4991171;28;20224;-80
2021/03/09 00:38:44;;;;;;;22.53;17.93;;;;;;;;;;4990900;28;20216;-81
2021/03/09 00:41:29;;;;;;;23.03;17.93;;;;;;;;;;5011453;28;20234;-80
2021/03/09 00:44:13;;;;;;;23.67;18.27;;;;;;;;;;5011599;28;20235;-81
2021/03/09 00:46:58;;;;;;;24.63;18.20;;;;;;;;;;5010935;28;20306;-81
2021/03/09 00:49:42;;;;;;;24.73;18.60;;;;;;;;;;5011450;28;20221;-80
2021/03/09 00:52:27;;;;;;;25.00;19.53;;;;;;;;;;5007738;28;20216;-81
2021/03/09 00:55:12;;;;;;;23.83;18.40;;;;;;;;;;4991985;28;20615;-81
2021/03/09 00:57:58;;;;;;;23.83;19.80;;;;;;;;;;4991337;28;20240;-80
2021/03/09 01:00:42;;;;;;;24.00;18.00;;;;;;;;;;4991656;28;20258;-80
2021/03/09 01:03:27;;;;;;;28.27;20.23;;;;;;;;;;5005002;28;20315;-81
2021/03/09 01:06:12;;;;;;;27.77;20.00;;;;;;;;;;5010778;28;20203;-81
2021/03/09 01:08:56;;;;;;;26.93;19.63;;;;;;;;;;4991731;28;20257;-81
2021/03/09 01:11:41;;;;;;;26.77;20.53;;;;;;;;;;4991418;28;20591;-81
2021/03/09 01:14:27;;;;;;;26.93;21.47;;;;;;;;;;4991051;28;20651;-81
2021/03/09 01:17:11;;;;;;;34.17;27.53;;;;;;;;;;5002417;28;20439;-81
2021/03/09 01:19:56;;;;;;;31.97;24.07;;;;;;;;;;5011097;28;20967;-81
2021/03/09 01:22:40;;;;;;;29.77;22.73;;;;;;;;;;4995012;28;20255;-81
2021/03/09 01:25:25;;;;;;;30.33;22.83;;;;;;;;;;4991305;28;20886;-82
2021/03/09 01:28:10;;;;;;;30.70;22.67;;;;;;;;;;4991058;28;20208;-82
2021/03/09 01:30:55;;;;;;;31.80;23.10;;;;;;;;;;5006981;28;20250;-82
2021/03/09 01:33:39;;;;;;;31.10;23.53;;;;;;;;;;5010693;28;20603;-81
2021/03/09 01:36:24;;;;;;;33.13;24.70;;;;;;;;;;5010510;28;20203;-82
2021/03/09 01:39:09;;;;;;;34.13;23.83;;;;;;;;;;5010955;28;20218;-82
2021/03/09 01:41:53;;;;;;;32.17;25.53;;;;;;;;;;5010973;28;20247;-82
2021/03/09 01:44:38;;;;;;;33.80;25.47;;;;;;;;;;5010594;28;20752;-82
2021/03/09 01:47:23;;;;;;;35.43;25.67;;;;;;;;;;5010784;28;20675;-82
2021/03/09 01:50:08;;;;;;;40.47;32.30;;;;;;;;;;5013261;28;20416;-82
2021/03/09 01:52:52;;;;;;;35.87;27.57;;;;;;;;;;5013738;28;20731;-83
2021/03/09 01:55:37;;;;;;;38.20;26.97;;;;;;;;;;5013582;28;20220;-82
2021/03/09 01:58:22;;;;;;;38.20;27.70;;;;;;;;;;5012173;28;20339;-82
2021/03/09 02:01:07;;;;;;;37.97;26.80;;;;;;;;;;4994733;28;20243;-82
2021/03/09 02:03:52;;;;;;;44.38;35.70;;;;;;;;;;4993451;28;20420;-82
2021/03/09 02:06:36;;;;;;;39.10;29.43;;;;;;;;;;4994159;28;20279;-81
2021/03/09 02:09:21;;;;;;;42.10;29.20;;;;;;;;;;4999357;28;20333;-82
2021/03/09 02:12:11;;;;;;;36.93;28.87;;;;;;;;;;4994900;28;20200;-82
2021/03/09 02:15:02;;;;;;;39.87;29.03;;;;;;;;;;5021260;28;20238;-81
2021/03/09 02:17:49;;;;;;;39.87;29.20;;;;;;;;;;5033243;28;20203;-81
2021/03/09 02:20:51;;;;;;;42.47;29.10;;;;;;;;;;5033861;28;20562;-82
2021/03/09 02:23:53;;;;;;;38.90;29.53;;;;;;;;;;5033748;28;20221;-82
2021/03/09 02:26:58;;;;;;;42.73;30.93;;;;;;;;;;5033119;28;20207;-83
2021/03/09 02:30:13;;;;;;;40.53;29.17;;;;;;;;;;5033711;28;20213;-82
2021/03/09 02:33:01;;;;;;;41.50;29.80;;;;;;;;;;4971807;28;20241;-83
2021/03/09 02:35:47;;;;;;;43.07;30.90;;;;;;;;;;4993954;28;21075;-83
2021/03/09 02:38:34;;;;;;;44.53;31.93;;;;;;;;;;5003563;28;20597;-82
2021/03/09 02:41:19;;;;;;;49.73;33.63;;;;;;;;;;5013734;28;20255;-82
2021/03/09 02:44:04;;;;;;;44.20;31.07;;;;;;;;;;5013551;28;20355;-82
2021/03/09 02:46:49;;;;;;;47.40;33.00;;;;;;;;;;5013077;28;20206;-82
2021/03/09 02:49:37;;;;;;;52.85;39.05;;;;;;;;;;5012564;28;20443;-83
2021/03/09 02:52:25;;;;;;;50.50;35.93;;;;;;;;;;5013340;28;20247;-83
2021/03/09 02:55:12;;;;;;;47.03;34.67;;;;;;;;;;5013442;28;20218;-82
2021/03/09 02:57:57;;;;;;;49.30;36.17;;;;;;;;;;5012568;28;20199;-82
2021/03/09 03:00:42;;;;;;;51.20;36.17;;;;;;;;;;5012286;28;20207;-82
2021/03/09 03:03:27;;;;;;;50.80;35.13;;;;;;;;;;5004865;28;20230;-81
2021/03/09 03:06:12;;;;;;;53.20;38.10;;;;;;;;;;4993283;28;20714;-82
2021/03/09 03:08:57;;;;;;;51.33;37.27;;;;;;;;;;4997204;28;20689;-82
2021/03/09 03:11:42;;;;;;;52.90;37.90;;;;;;;;;;4993132;28;20254;-82
2021/03/09 03:14:28;;;;;;;53.00;37.77;;;;;;;;;;4992961;28;20782;-82
2021/03/09 03:17:14;;;;;;;54.43;39.37;;;;;;;;;;4992959;28;20305;-82
2021/03/09 03:19:58;;;;;;;57.60;40.97;;;;;;;;;;4992945;28;20276;-82
2021/03/09 03:22:45;;;;;;;60.90;46.27;;;;;;;;;;5008807;28;20447;-82
2021/03/09 03:25:30;;;;;;;57.83;43.27;;;;;;;;;;5012537;28;20449;-82
2021/03/09 03:28:15;;;;;;;54.17;40.80;;;;;;;;;;5012561;28;20206;-82
2021/03/09 03:31:00;;;;;;;56.73;41.30;;;;;;;;;;5012669;28;20233;-82
2021/03/09 03:33:46;;;;;;;59.00;41.43;;;;;;;;;;5012184;28;20277;-82
2021/03/09 03:36:31;;;;;;;68.53;51.78;;;;;;;;;;5010847;28;20794;-82
2021/03/09 03:39:17;;;;;;;62.03;43.30;;;;;;;;;;5003419;28;20260;-82
2021/03/09 03:42:01;;;;;;;58.10;42.50;;;;;;;;;;5012346;28;20262;-82
2021/03/09 03:44:45;;;;;;;58.17;41.73;;;;;;;;;;4992876;28;20347;-82
2021/03/09 03:47:30;;;;;;;61.37;43.97;;;;;;;;;;4992567;28;20209;-82
2021/03/09 03:50:15;;;;;;;58.67;42.30;;;;;;;;;;4992527;28;20224;-82
2021/03/09 03:53:03;;;;;;;61.33;42.50;;;;;;;;;;5004107;28;20228;-82
2021/03/09 03:55:53;;;;;;;57.23;42.40;;;;;;;;;;5012151;28;20195;-82
2021/03/09 03:58:43;;;;;;;55.80;41.33;;;;;;;;;;5012433;28;20459;-82
2021/03/09 04:01:28;;;;;;;61.67;44.57;;;;;;;;;;5012084;28;20218;-82
2021/03/09 04:04:13;;;;;;;61.63;44.50;;;;;;;;;;5011964;28;20408;-82
2021/03/09 04:06:58;;;;;;;60.73;43.23;;;;;;;;;;5010411;28;20210;-82
2021/03/09 04:09:44;;;;;;;72.85;54.47;;;;;;;;;;4991812;28;20432;-82
2021/03/09 04:12:30;;;;;;;66.50;47.77;;;;;;;;;;4991961;28;20223;-82
2021/03/09 04:15:15;;;;;;;63.00;45.60;;;;;;;;;;5002120;28;20204;-82
2021/03/09 04:18:01;;;;;;;67.43;47.50;;;;;;;;;;5010834;28;20682;-82
2021/03/09 04:20:46;;;;;;;72.20;48.73;;;;;;;;;;5011741;28;20208;-82
2021/03/09 04:23:31;;;;;;;79.15;59.50;;;;;;;;;;5010763;28;20416;-82
2021/03/09 04:26:17;;;;;;;72.20;51.83;;;;;;;;;;5011102;28;20228;-82
2021/03/09 04:29:03;;;;;;;74.67;50.80;;;;;;;;;;5009220;28;20718;-82
2021/03/09 04:31:47;;;;;;;67.80;48.50;;;;;;;;;;5006639;28;20226;-82
2021/03/09 04:34:32;;;;;;;74.80;50.20;;;;;;;;;;5011079;28;20636;-81
2021/03/09 04:37:17;;;;;;;74.27;49.37;;;;;;;;;;5010444;28;20568;-82
2021/03/09 04:40:02;;;;;;;63.70;46.97;;;;;;;;;;4992681;28;20255;-82
2021/03/09 04:42:47;;;;;;;76.03;51.27;;;;;;;;;;4991747;28;20227;-82
2021/03/09 04:45:33;;;;;;;75.50;49.93;;;;;;;;;;4992123;28;20698;-82
2021/03/09 04:48:17;;;;;;;70.47;50.43;;;;;;;;;;4991800;28;20559;-82
2021/03/09 04:51:03;;;;;;;78.37;49.83;;;;;;;;;;4991940;28;20283;-81
2021/03/09 04:53:47;;;;;;;77.03;51.43;;;;;;;;;;4991445;28;20275;-82
2021/03/09 04:56:32;;;;;;;89.22;65.13;;;;;;;;;;4990590;28;20421;-82
2021/03/09 04:59:17;;;;;;;84.77;54.77;;;;;;;;;;4991765;28;20252;-82
2021/03/09 05:02:02;;;;;;;79.20;52.83;;;;;;;;;;4991906;28;20594;-82
2021/03/09 05:04:47;;;;;;;81.37;53.10;;;;;;;;;;5006745;28;20281;-82
2021/03/09 05:07:32;;;;;;;86.73;56.50;;;;;;;;;;5010210;28;20246;-82
2021/03/09 05:10:16;;;;;;;113.13;89.28;;;;;;;;;;5010054;28;20467;-82
2021/03/09 05:13:01;;;;;;;113.30;82.07;;;;;;;;;;5010529;28;20279;-82
2021/03/09 05:15:45;;;;;;;116.00;85.97;;;;;;;;;;4991206;28;20204;-83
2021/03/09 05:18:30;;;;;;;129.17;95.00;;;;;;;;;;4997633;28;20310;-82
2021/03/09 05:21:15;;;;;;;133.70;98.13;;;;;;;;;;5011001;28;20729;-82
2021/03/09 05:23:59;;;;;;;135.33;101.13;;;;;;;;;;5004163;28;20264;-82
2021/03/09 05:26:44;;;;;;;133.83;98.30;;;;;;;;;;5033922;28;20743;-82
2021/03/09 05:29:29;;;;;;;139.63;103.43;;;;;;;;;;5017309;28;20211;-82
2021/03/09 05:32:13;;;;;;;138.50;105.60;;;;;;;;;;5014742;28;20204;-82
2021/03/09 05:34:59;;;;;;;127.57;97.63;;;;;;;;;;5014437;28;20219;-82
2021/03/09 05:37:43;;;;;;;133.97;98.60;;;;;;;;;;5014340;28;20216;-82
2021/03/09 05:40:28;;;;;;;138.60;103.80;;;;;;;;;;5022085;28;20265;-82
2021/03/09 05:43:13;;;;;;;147.57;104.17;;;;;;;;;;5017245;28;20724;-82
2021/03/09 05:45:57;;;;;;;132.17;96.63;;;;;;;;;;5014215;28;20203;-82
2021/03/09 05:48:42;;;;;;;146.30;101.13;;;;;;;;;;5014745;28;20580;-82
2021/03/09 05:51:29;;;;;;;132.90;97.73;;;;;;;;;;5005766;28;20236;-82
2021/03/09 05:54:14;;;;;;;136.77;98.87;;;;;;;;;;5033275;28;20431;-81
2021/03/09 05:56:58;;;;;;;154.30;99.07;;;;;;;;;;5024888;28;20523;-82
2021/03/09 05:59:43;;;;;;;140.50;93.43;;;;;;;;;;5014482;28;20246;-82
2021/03/09 06:02:28;;;;;;;135.03;92.40;;;;;;;;;;5066483;22;20263;-69
2021/03/09 06:05:13;;;;;;;132.67;90.50;;;;;;;;;;5074020;28;20293;-69
2021/03/09 06:07:58;;;;;;;142.30;92.57;;;;;;;;;;5072967;28;20241;-69
2021/03/09 06:10:42;;;;;;;141.63;93.87;;;;;;;;;;5072361;28;20251;-69
2021/03/09 06:13:33;;;;;;;138.93;92.60;;;;;;;;;;5076103;28;20266;-69
2021/03/09 06:16:18;;;;;;;128.80;88.03;;;;;;;;;;5071863;28;20207;-68
2021/03/09 06:19:02;;;;;;;130.80;86.20;;;;;;;;;;5073503;28;20220;-69
2021/03/09 06:21:52;;;;;;;127.40;83.90;;;;;;;;;;5073568;28;20790;-69
2021/03/09 06:24:37;;;;;;;120.30;76.93;;;;;;;;;;5073678;28;20244;-69
2021/03/09 06:27:23;;;;;;;118.93;73.47;;;;;;;;;;5072755;28;20858;-69
2021/03/09 06:30:08;;;;;;;115.67;72.90;;;;;;;;;;5073640;28;20701;-69
2021/03/09 06:32:53;;;;;;;113.17;70.77;;;;;;;;;;5060491;28;20220;-69
2021/03/09 06:35:39;;;;;;;109.57;70.40;;;;;;;;;;5071795;28;20204;-69
2021/03/09 06:38:24;;;;;;;101.47;65.57;;;;;;;;;;5090698;28;20236;-70
2021/03/09 06:41:12;;;;;;;107.53;64.57;;;;;;;;;;5087139;28;20220;-67
2021/03/09 06:44:00;;;;;;;124.80;86.75;;;;;;;;;;5071608;28;20415;-68
2021/03/09 06:46:45;;;;;;;105.67;63.43;;;;;;;;;;5072341;28;20198;-69
2021/03/09 06:49:29;;;;;;;99.50;59.40;;;;;;;;;;5073064;28;20200;-69
2021/03/09 06:52:14;;;;;;;104.43;58.63;;;;;;;;;;5072640;28;20258;-68
2021/03/09 06:54:59;;;;;;;103.10;58.77;;;;;;;;;;5076618;28;20260;-67
2021/03/09 06:58:02;;;;;;;91.43;56.47;;;;;;;;;;5072504;28;20216;-67
2021/03/09 07:00:47;;;;;;;95.63;54.97;;;;;;;;;;5068521;28;20722;-67
2021/03/09 07:03:32;;;;;;;94.23;54.63;;;;;;;;;;5066729;28;20732;-68
2021/03/09 07:06:16;;;;;;;81.23;53.00;;;;;;;;;;5071827;28;20261;-69
2021/03/09 07:09:08;;;;;;;106.27;56.97;;;;;;;;;;5072501;28;20204;-69
2021/03/09 07:11:53;;;;;;;97.80;57.70;;;;;;;;;;5082697;28;20209;-70
2021/03/09 07:14:40;;;;;;;124.78;76.40;;;;;;;;;;5091492;28;20480;-69
2021/03/09 07:17:25;;;;;;;105.10;61.63;;;;;;;;;;5085972;28;20206;-69
2021/03/09 07:20:11;;;;;;;112.40;60.57;;;;;;;;;;5072183;28;20252;-69
2021/03/09 07:22:56;;;;;;;116.57;61.37;;;;;;;;;;5072386;28;20249;-69
2021/03/09 07:25:41;;;;;;;107.27;57.90;;;;;;;;;;5072226;28;20252;-69
2021/03/09 07:28:28;;;;;;;138.35;72.28;;;;;;;;;;5071724;28;20469;-69
2021/03/09 07:31:14;;;;;;;121.43;62.23;;;;;;;;;;5072347;28;20245;-69
2021/03/09 07:33:58;;;;;;;128.60;62.03;;;;;;;;;;5071943;28;20223;-69
2021/03/09 07:36:43;;;;;;;117.20;59.93;;;;;;;;;;5051728;28;20236;-69
2021/03/09 07:39:28;;;;;;;91.43;53.20;;;;;;;;;;5052272;28;20685;-69
2021/03/09 07:42:13;;;;;;;108.80;55.90;;;;;;;;;;5065756;28;20628;-69
2021/03/09 07:44:57;;;;;;;86.80;52.30;;;;;;;;;;5072016;28;20208;-69
2021/03/09 07:47:47;;;;;;;84.90;50.63;;;;;;;;;;5072342;28;20201;-69
2021/03/09 07:50:33;;;;;;;97.87;52.17;;;;;;;;;;5062171;28;20205;-69
2021/03/09 07:53:17;;;;;;;83.10;47.73;;;;;;;;;;5071782;28;20677;-69
2021/03/09 07:56:13;;;;;;;81.33;46.40;;;;;;;;;;5051405;28;20246;-69
2021/03/09 07:59:04;;;;;;;67.40;43.27;;;;;;;;;;5051541;28;20264;-69
2021/03/09 08:01:49;;;;;;;75.77;45.13;;;;;;;;;;5051120;28;20208;-69
2021/03/09 08:04:54;;;;;;;67.50;41.00;;;;;;;;;;5072851;28;20241;-71
2021/03/09 08:07:45;;;;;;;53.17;35.53;;;;;;;;;;5072402;28;20217;-74
2021/03/09 08:10:40;;;;;;;54.80;36.93;;;;;;;;;;5069930;28;20206;-73
2021/03/09 08:13:26;;;;;;;58.90;38.10;;;;;;;;;;5071071;28;20227;-73
2021/03/09 08:16:28;;;;;;;74.60;50.28;;;;;;;;;;5070004;28;20492;-69
2021/03/09 08:19:14;;;;;;;64.97;41.40;;;;;;;;;;5071411;28;20269;-70
2021/03/09 08:21:59;;;;;;;58.40;36.90;;;;;;;;;;5071041;28;20673;-69
2021/03/09 08:24:51;;;;;;;41.90;29.13;;;;;;;;;;5071347;28;20226;-73
2021/03/09 08:27:37;;;;;;;31.40;22.80;;;;;;;;;;5070627;28;20199;-76
2021/03/09 08:30:30;;;;;;;22.90;16.93;;;;;;;;;;5071289;28;20257;-75
2021/03/09 08:33:25;;;;;;;28.57;18.77;;;;;;;;;;5070997;28;20234;-75
2021/03/09 08:36:28;;;;;;;23.00;15.23;;;;;;;;;;5077608;28;20331;-76
2021/03/09 08:39:17;;;;;;;18.43;14.67;;;;;;;;;;5091393;28;20204;-76
2021/03/09 08:42:02;;;;;;;21.23;13.97;;;;;;;;;;5091272;28;20226;-76
2021/03/09 08:44:47;;;;;;;15.87;12.67;;;;;;;;;;5091308;28;20283;-76
2021/03/09 08:47:51;;;;;;;20.95;18.70;;;;;;;;;;5089421;28;20448;-76
2021/03/09 08:50:39;;;;;;;17.40;13.23;;;;;;;;;;5091229;28;20204;-77
2021/03/09 08:53:28;;;;;;;14.30;10.63;;;;;;;;;;5090903;28;20218;-76
2021/03/09 08:56:14;;;;;;;19.67;11.63;;;;;;;;;;5090559;28;20268;-75
2021/03/09 08:58:58;;;;;;;12.57;10.77;;;;;;;;;;5077643;28;20211;-74
2021/03/09 09:01:42;;;;;;;15.25;13.23;;;;;;;;;;5060705;28;20472;-74
2021/03/09 09:04:27;;;;;;;14.40;12.33;;;;;;;;;;5070571;28;20293;-74
2021/03/09 09:07:25;;;;;;;11.97;9.73;;;;;;;;;;5070466;28;20343;-73
2021/03/09 09:10:11;;;;;;;12.07;7.43;;;;;;;;;;5070408;28;20215;-73
2021/03/09 09:12:56;;;;;;;8.43;7.50;;;;;;;;;;5074161;28;20225;-73
2021/03/09 09:15:41;;;;;;;11.10;7.30;;;;;;;;;;5070453;28;20203;-73
2021/03/09 09:18:25;;;;;;;9.30;7.37;;;;;;;;;;5070400;28;20206;-73
2021/03/09 09:21:10;;;;;;;10.33;7.40;;;;;;;;;;5070248;28;20200;-73
2021/03/09 09:23:54;;;;;;;10.17;7.90;;;;;;;;;;5069920;28;20200;-73
2021/03/09 09:26:38;;;;;;;10.37;7.40;;;;;;;;;;5070107;28;20243;-74
2021/03/09 09:29:24;;;;;;;7.83;6.83;;;;;;;;;;5066723;28;20204;-73
2021/03/09 09:32:08;;;;;;;8.33;6.37;;;;;;;;;;5072226;28;20222;-75
2021/03/09 09:34:59;;;;;;;7.73;6.70;;;;;;;;;;5070547;28;20628;-73
2021/03/09 09:37:51;;;;;;;8.37;6.63;;;;;;;;;;5070014;28;20342;-74
2021/03/09 09:40:36;;;;;;;8.40;6.60;;;;;;;;;;5070403;28;20221;-70
2021/03/09 09:43:21;;;;;;;7.97;6.73;;;;;;;;;;5069368;28;20263;-73
2021/03/09 09:46:08;;;;;;;7.85;7.03;;;;;;;;;;5067261;28;20423;-72
2021/03/09 09:48:52;;;;;;;8.03;6.07;;;;;;;;;;5089896;28;20555;-72
2021/03/09 09:51:38;;;;;;;6.33;5.73;;;;;;;;;;5090494;28;20216;-74
2021/03/09 09:54:22;;;;;;;9.33;6.20;;;;;;;;;;5090155;28;20231;-73
2021/03/09 09:57:10;;;;;;;5.57;4.40;;;;;;;;;;5076953;28;20613;-73
2021/03/09 09:59:54;;;;;;;5.77;4.43;;;;;;;;;;5070310;28;20249;-73
2021/03/09 10:02:40;;;;;;;5.43;4.10;;;;;;;;;;5068913;28;20278;-75
2021/03/09 10:05:25;;;;;;;6.10;4.47;;;;;;;;;;5070338;28;20622;-75
2021/03/09 10:08:10;;;;;;;4.63;4.33;;;;;;;;;;5069593;28;20545;-75
2021/03/09 10:10:58;;;;;;;5.93;4.50;;;;;;;;;;5073248;28;20201;-75
2021/03/09 10:13:43;;;;;;;4.43;4.03;;;;;;;;;;5073509;28;20216;-73
2021/03/09 10:16:35;;;;;;;4.93;4.45;;;;;;;;;;5073418;28;20412;-73
2021/03/09 10:19:21;;;;;;;5.20;4.70;;;;;;;;;;5073729;28;20731;-73
2021/03/09 10:22:15;;;;;;;5.17;4.40;;;;;;;;;;5078285;28;20223;-73
2021/03/09 10:25:10;;;;;;;4.00;3.70;;;;;;;;;;5073394;28;20212;-71
2021/03/09 10:28:00;;;;;;;7.00;3.90;;;;;;;;;;5072348;28;20211;-72
2021/03/09 10:30:44;;;;;;;5.38;4.13;;;;;;;;;;5072030;28;20434;-71
2021/03/09 10:33:29;;;;;;;4.73;3.90;;;;;;;;;;5072148;28;20223;-71
2021/03/09 10:36:14;;;;;;;5.00;3.93;;;;;;;;;;5066976;28;20254;-71
2021/03/09 10:39:10;;;;;;;4.83;3.83;;;;;;;;;;5062637;28;20278;-76
2021/03/09 10:41:54;;;;;;;4.47;3.60;;;;;;;;;;5072400;28;20227;-75
2021/03/09 10:44:39;;;;;;;4.07;3.77;;;;;;;;;;5072337;28;20227;-79
2021/03/09 10:47:24;;;;;;;4.83;3.67;;;;;;;;;;5071983;28;20277;-73
2021/03/09 10:50:09;;;;;;;5.27;3.43;;;;;;;;;;5068746;28;20212;-73
2021/03/09 10:52:55;;;;;;;5.57;5.13;;;;;;;;;;5072430;28;20244;-74
2021/03/09 10:55:39;;;;;;;4.27;3.90;;;;;;;;;;5073232;28;20208;-72
2021/03/09 10:58:23;;;;;;;5.63;4.13;;;;;;;;;;5075612;28;20676;-74
2021/03/09 11:01:08;;;;;;;8.47;7.67;;;;;;;;;;5073187;28;20285;-69
2021/03/09 11:03:52;;;;;;;6.53;5.93;;;;;;;;;;5062670;28;20563;-71
2021/03/09 11:06:37;;;;;;;6.07;5.43;;;;;;;;;;5069056;28;20200;-71
2021/03/09 11:09:22;;;;;;;7.57;6.93;;;;;;;;;;5070451;28;20204;-71
2021/03/09 11:12:07;;;;;;;6.23;5.73;;;;;;;;;;5059599;28;20229;-72
2021/03/09 11:14:51;;;;;;;6.77;6.27;;;;;;;;;;5059342;28;20804;-72
2021/03/09 11:17:36;;;;;;;7.38;6.80;;;;;;;;;;5066307;28;20485;-69
2021/03/09 11:20:21;;;;;;;7.10;6.50;;;;;;;;;;5074923;28;20219;-71
2021/03/09 11:23:06;;;;;;;6.17;5.70;;;;;;;;;;5058290;28;20255;-73
2021/03/09 11:25:51;;;;;;;5.90;5.37;;;;;;;;;;5084203;28;20262;-72
2021/03/09 11:28:36;;;;;;;5.70;5.20;;;;;;;;;;5091351;28;20269;-74
2021/03/09 11:31:21;;;;;;;5.07;4.67;;;;;;;;;;5092404;28;20255;-73
2021/03/09 11:34:05;;;;;;;4.30;4.00;;;;;;;;;;5092350;28;20594;-73
2021/03/09 11:36:50;;;;;;;3.20;2.90;;;;;;;;;;5091902;28;20200;-73
2021/03/09 11:39:34;;;;;;;3.17;2.20;;;;;;;;;;5092481;28;20206;-74
2021/03/09 11:42:19;;;;;;;2.37;2.20;;;;;;;;;;5092252;28;20223;-73
2021/03/09 11:45:05;;;;;;;2.40;2.20;;;;;;;;;;5091880;28;20677;-73
2021/03/09 11:47:49;;;;;;;2.27;2.03;;;;;;;;;;5091767;28;20195;-73
2021/03/09 11:50:33;;;;;;;2.00;1.90;;;;;;;;;;5092010;28;20227;-73
2021/03/09 11:53:18;;;;;;;1.87;1.77;;;;;;;;;;5091653;28;20220;-73
2021/03/09 11:56:04;;;;;;;2.87;2.60;;;;;;;;;;5091357;28;20300;-73
2021/03/09 11:58:49;;;;;;;1.77;1.60;;;;;;;;;;5092191;28;20196;-73
2021/03/09 12:01:34;;;;;;;3.77;2.03;;;;;;;;;;5092379;28;20228;-73
2021/03/09 12:04:18;;;;;;;2.70;1.70;;;;;;;;;;5091794;28;20493;-73
2021/03/09 12:07:03;;;;;;;1.50;1.40;;;;;;;;;;5091536;28;20298;-73
2021/03/09 12:09:47;;;;;;;4.30;1.90;;;;;;;;;;5091952;28;20227;-73
2021/03/09 12:12:32;;;;;;;3.03;2.70;;;;;;;;;;5091955;28;20220;-73
2021/03/09 12:15:17;;;;;;;4.03;3.53;;;;;;;;;;5091521;28;20231;-73
2021/03/09 12:18:02;;;;;;;3.73;3.00;;;;;;;;;;5091224;28;20192;-73
2021/03/09 12:20:46;;;;;;;3.33;3.13;;;;;;;;;;5091813;28;20679;-73
2021/03/09 12:23:31;;;;;;;2.40;2.30;;;;;;;;;;5091587;28;20212;-73
2021/03/09 12:26:15;;;;;;;2.07;1.87;;;;;;;;;;5090993;28;20247;-73
2021/03/09 12:29:00;;;;;;;2.10;1.97;;;;;;;;;;5091409;28;20235;-73
2021/03/09 12:31:45;;;;;;;2.90;2.13;;;;;;;;;;5091729;28;20247;-73
2021/03/09 12:34:30;;;;;;;4.00;2.22;;;;;;;;;;5091052;28;20449;-73
2021/03/09 12:37:14;;;;;;;8.07;7.30;;;;;;;;;;5090962;28;20222;-73
2021/03/09 12:39:59;;;;;;;3.27;2.30;;;;;;;;;;5091140;28;20245;-73
2021/03/09 12:42:44;;;;;;;3.40;3.20;;;;;;;;;;5091310;28;20232;-73
2021/03/09 12:45:28;;;;;;;3.67;3.37;;;;;;;;;;5091400;28;20197;-73
2021/03/09 12:48:13;;;;;;;2.47;2.28;;;;;;;;;;5090981;28;20421;-74
2021/03/09 12:50:57;;;;;;;1.83;1.60;;;;;;;;;;5091382;28;20203;-73
2021/03/09 12:53:42;;;;;;;1.90;1.77;;;;;;;;;;5091085;28;20600;-73
2021/03/09 12:56:27;;;;;;;1.90;1.80;;;;;;;;;;5090647;28;20203;-73
2021/03/09 12:59:11;;;;;;;1.80;1.70;;;;;;;;;;5091229;28;20242;-74
2021/03/09 13:01:56;;;;;;;2.67;1.33;;;;;;;;;;5090719;28;20410;-73
2021/03/09 13:04:41;;;;;;;1.97;1.77;;;;;;;;;;5091203;28;20211;-73
2021/03/09 13:07:26;;;;;;;2.10;2.00;;;;;;;;;;5090685;28;20196;-73
2021/03/09 13:10:12;;;;;;;1.80;1.70;;;;;;;;;;5091049;28;20200;-73
2021/03/09 13:12:56;;;;;;;1.50;1.40;;;;;;;;;;5091039;28;20576;-73
2021/03/09 13:15:40;;;;;;;2.40;2.20;;;;;;;;;;5090968;28;20246;-73
2021/03/09 13:18:25;;;;;;;3.23;2.20;;;;;;;;;;5091002;28;20537;-73
2021/03/09 13:21:11;;;;;;;2.20;2.10;;;;;;;;;;5091008;28;20390;-73
2021/03/09 13:23:55;;;;;;;2.73;2.60;;;;;;;;;;5090756;28;20268;-73
2021/03/09 13:26:39;;;;;;;3.07;2.40;;;;;;;;;;5090526;28;20227;-73
2021/03/09 13:29:24;;;;;;;2.57;2.00;;;;;;;;;;5091093;28;20606;-73
2021/03/09 13:32:09;;;;;;;2.00;1.90;;;;;;;;;;5090716;28;20577;-73
2021/03/09 13:34:53;;;;;;;2.20;1.77;;;;;;;;;;5090275;28;20481;-73
2021/03/09 13:37:39;;;;;;;2.40;2.10;;;;;;;;;;5090548;28;20196;-73
2021/03/09 13:40:23;;;;;;;2.00;1.90;;;;;;;;;;5090910;28;20212;-73
2021/03/09 13:43:08;;;;;;;2.37;2.23;;;;;;;;;;5090950;28;20311;-73
2021/03/09 13:45:52;;;;;;;2.60;2.03;;;;;;;;;;5093473;28;20518;-73
2021/03/09 13:48:39;;;;;;;2.00;1.90;;;;;;;;;;5094855;28;20196;-73
2021/03/09 13:51:23;;;;;;;2.77;2.57;;;;;;;;;;5094436;28;20219;-73
2021/03/09 13:54:09;;;;;;;2.10;2.00;;;;;;;;;;5094334;28;20297;-73
2021/03/09 13:56:53;;;;;;;2.10;2.00;;;;;;;;;;5094291;28;20220;-73
2021/03/09 13:59:38;;;;;;;2.60;1.80;;;;;;;;;;5094466;28;20242;-73
2021/03/09 14:02:22;;;;;;;2.37;1.90;;;;;;;;;;5093943;28;20273;-73
2021/03/09 14:05:08;;;;;;;2.60;2.40;;;;;;;;;;5094113;28;20728;-73
2021/03/09 14:07:53;;;;;;;3.67;2.57;;;;;;;;;;5094234;28;20196;-73
2021/03/09 14:10:38;;;;;;;3.27;2.37;;;;;;;;;;5094323;28;20204;-73
2021/03/09 14:13:23;;;;;;;2.70;2.50;;;;;;;;;;5094086;28;20342;-73
2021/03/09 14:16:07;;;;;;;5.27;2.50;;;;;;;;;;5093806;28;20203;-73
2021/03/09 14:18:52;;;;;;;5.20;2.77;;;;;;;;;;5093513;28;20223;-74
2021/03/09 14:21:37;;;;;;;2.80;2.60;;;;;;;;;;5093189;28;20603;-74
2021/03/09 14:24:21;;;;;;;2.77;2.50;;;;;;;;;;5093647;28;20211;-73
2021/03/09 14:27:07;;;;;;;4.43;2.50;;;;;;;;;;5093451;28;20199;-73
2021/03/09 14:29:51;;;;;;;2.80;2.60;;;;;;;;;;5093809;28;20288;-73
2021/03/09 14:32:36;;;;;;;3.20;2.53;;;;;;;;;;5093882;28;20220;-73
2021/03/09 14:35:21;;;;;;;4.03;3.53;;;;;;;;;;5093419;28;20725;-73
2021/03/09 14:38:05;;;;;;;2.90;2.70;;;;;;;;;;5093195;28;20565;-73
2021/03/09 14:40:50;;;;;;;3.20;2.90;;;;;;;;;;5093468;28;20203;-73
2021/03/09 14:43:35;;;;;;;3.17;2.97;;;;;;;;;;5093616;28;20599;-73
2021/03/09 14:46:19;;;;;;;4.27;3.20;;;;;;;;;;5093024;28;20315;-73
2021/03/09 14:49:06;;;;;;;3.40;3.10;;;;;;;;;;5093634;28;20220;-73
2021/03/09 14:51:51;;;;;;;4.90;3.23;;;;;;;;;;5093182;28;20693;-73
2021/03/09 14:54:37;;;;;;;4.27;3.83;;;;;;;;;;5093128;28;20239;-73
2021/03/09 14:57:22;;;;;;;5.87;4.70;;;;;;;;;;5091514;28;20202;-73
2021/03/09 15:00:08;;;;;;;4.50;4.20;;;;;;;;;;5093236;28;20214;-73
2021/03/09 15:02:53;;;;;;;4.77;4.43;;;;;;;;;;5093141;28;20226;-73
2021/03/09 15:05:38;;;;;;;6.78;6.10;;;;;;;;;;5092979;28;20502;-73
2021/03/09 15:08:22;;;;;;;5.30;4.90;;;;;;;;;;5093146;28;20211;-73
2021/03/09 15:11:06;;;;;;;5.50;4.83;;;;;;;;;;5093082;28;20707;-73
2021/03/09 15:13:51;;;;;;;5.27;4.77;;;;;;;;;;5092926;28;20219;-73
2021/03/09 15:16:36;;;;;;;5.30;4.80;;;;;;;;;;5092662;28;20203;-73
2021/03/09 15:19:20;;;;;;;7.07;5.20;;;;;;;;;;5093051;28;20562;-73
2021/03/09 15:22:05;;;;;;;5.80;5.30;;;;;;;;;;5092998;28;20295;-73
2021/03/09 15:24:50;;;;;;;5.57;5.17;;;;;;;;;;5093009;28;20246;-73
2021/03/09 15:27:34;;;;;;;7.43;5.17;;;;;;;;;;5091974;28;20227;-73
2021/03/09 15:30:19;;;;;;;5.53;5.00;;;;;;;;;;5092639;28;20196;-73
2021/03/09 15:33:05;;;;;;;7.80;7.07;;;;;;;;;;5092424;28;20245;-73
2021/03/09 15:35:49;;;;;;;8.07;5.70;;;;;;;;;;5091954;28;20283;-73
2021/03/09 15:38:34;;;;;;;5.83;5.40;;;;;;;;;;5092384;28;20242;-73
2021/03/09 15:41:18;;;;;;;6.47;5.83;;;;;;;;;;5092051;28;20737;-73
2021/03/09 15:44:04;;;;;;;5.90;5.47;;;;;;;;;;5092478;28;20207;-72
2021/03/09 15:46:48;;;;;;;6.23;5.73;;;;;;;;;;5091551;28;20199;-73
2021/03/09 15:49:33;;;;;;;6.17;5.60;;;;;;;;;;5092088;28;20445;-73
2021/03/09 15:52:17;;;;;;;6.27;5.77;;;;;;;;;;5092409;28;20967;-73
2021/03/09 15:55:03;;;;;;;5.97;5.57;;;;;;;;;;5091856;28;20235;-73
2021/03/09 15:57:47;;;;;;;6.07;5.50;;;;;;;;;;5091633;28;20204;-73
2021/03/09 16:00:31;;;;;;;6.20;5.70;;;;;;;;;;5091920;28;20674;-73
2021/03/09 16:03:16;;;;;;;7.37;6.07;;;;;;;;;;5091932;28;20215;-73
2021/03/09 16:06:01;;;;;;;6.50;5.93;;;;;;;;;;5091511;28;20210;-73
2021/03/09 16:08:46;;;;;;;6.47;5.87;;;;;;;;;;5091756;28;20203;-73
2021/03/09 16:11:30;;;;;;;6.73;6.03;;;;;;;;;;5092023;28;20299;-73
2021/03/09 16:14:15;;;;;;;8.87;8.00;;;;;;;;;;5092020;28;20269;-73